createdAt,value
2022-12-01T00:01:15.224Z,102589.06
2022-12-01T00:06:36.874Z,102588.41
2022-12-01T00:11:58.529Z,102583.91
2022-12-01T00:17:21.553Z,102569.41
2022-12-01T00:22:48.114Z,102571.53
2022-12-01T00:28:09.805Z,102560.66
2022-12-01T00:33:31.620Z,102564.69
2022-12-01T00:38:55.305Z,102566.59
2022-12-01T00:44:16.934Z,102579.97
2022-12-01T00:49:38.687Z,102574.81
2022-12-01T00:55:00.338Z,102579.09
2022-12-01T01:00:22.028Z,102569.28
2022-12-01T01:05:44.197Z,102573.28
2022-12-01T01:11:06.967Z,102587.16
2022-12-01T01:16:28.924Z,102589.25
2022-12-01T01:21:50.733Z,102591.41
2022-12-01T01:27:12.374Z,102599.06
2022-12-01T01:32:34.233Z,102612.03
2022-12-01T01:37:58.550Z,102620.56
2022-12-01T01:43:44.728Z,102613.28
2022-12-01T01:49:11.726Z,102616.47
2022-12-01T01:54:37.385Z,102618.41
2022-12-01T02:00:04.681Z,102622.81
2022-12-01T02:05:30.654Z,102617.94
2022-12-01T02:11:17.734Z,102615.56
2022-12-01T02:16:58.181Z,102617.28
2022-12-01T02:22:35.798Z,102618.53
2022-12-01T02:28:29.484Z,102618.53
2022-12-01T02:34:11.685Z,102608.72
2022-12-01T02:39:46.303Z,102613.59
2022-12-01T02:45:14.143Z,102620.19
2022-12-01T02:50:39.240Z,102614.00
2022-12-01T02:56:01.072Z,102614.00
2022-12-01T03:01:46.488Z,102614.00
2022-12-01T03:07:20.373Z,102611.81
2022-12-01T03:12:59.345Z,102606.50
2022-12-01T03:18:29.891Z,102614.13
2022-12-01T03:24:13.879Z,102603.94
2022-12-01T03:29:45.163Z,102604.13
2022-12-01T03:35:14.642Z,102604.31
2022-12-01T03:40:39.483Z,102600.72
2022-12-01T03:46:25.407Z,102607.94
2022-12-01T03:51:59.055Z,102606.25
2022-12-01T03:57:30.160Z,102606.44
2022-12-01T04:02:57.060Z,102601.09
2022-12-01T04:08:19.085Z,102606.66
2022-12-01T04:13:40.724Z,102607.69
2022-12-01T04:19:02.406Z,102612.38
2022-12-01T04:24:24.105Z,102605.97
2022-12-01T04:29:46.063Z,102605.09
2022-12-01T04:35:10.748Z,102600.44
2022-12-01T04:40:32.404Z,102596.19
2022-12-01T04:45:54.079Z,102598.06
2022-12-01T04:51:15.991Z,102589.75
2022-12-01T04:56:37.731Z,102596.19
2022-12-01T05:01:59.500Z,102595.31
2022-12-01T05:07:21.254Z,102596.34
2022-12-01T05:12:42.973Z,102597.41
2022-12-01T05:18:04.703Z,102608.47
2022-12-01T05:23:28.279Z,102601.22
2022-12-01T05:28:50.006Z,102601.22
2022-12-01T05:34:11.689Z,102598.69
2022-12-01T05:39:33.350Z,102608.03
2022-12-01T05:44:55.012Z,102600.59
2022-12-01T05:50:16.679Z,102602.50
2022-12-01T05:55:38.959Z,102607.19
2022-12-01T06:01:01.040Z,102600.78
2022-12-01T06:06:22.696Z,102605.47
2022-12-01T06:11:44.370Z,102603.53
2022-12-01T06:17:06.057Z,102607.38
2022-12-01T06:22:27.740Z,102616.53
2022-12-01T06:27:49.413Z,102619.31
2022-12-01T06:33:11.821Z,102621.22
2022-12-01T06:38:35.503Z,102616.53
2022-12-01T06:43:57.165Z,102625.03
2022-12-01T06:49:19.931Z,102627.78
2022-12-01T06:54:41.589Z,102630.78
2022-12-01T07:00:04.781Z,102638.03
2022-12-01T07:05:26.772Z,102650.34
2022-12-01T07:10:57.297Z,102645.88
2022-12-01T07:16:19.165Z,102652.63
2022-12-01T07:21:40.888Z,102650.09
2022-12-01T07:27:02.535Z,102657.53
2022-12-01T07:32:24.249Z,102660.31
2022-12-01T07:37:46.362Z,102660.69
2022-12-01T07:43:08.016Z,102665.34
2022-12-01T07:48:30.395Z,102664.50
2022-12-01T07:53:53.528Z,102668.28
2022-12-01T07:59:15.181Z,102677.66
2022-12-01T08:04:37.260Z,102675.25
2022-12-01T08:09:59.030Z,102689.09
2022-12-01T08:15:20.681Z,102688.25
2022-12-01T08:20:42.420Z,102700.38
2022-12-01T08:26:06.761Z,102703.34
2022-12-01T08:31:35.893Z,102702.47
2022-12-01T08:36:57.844Z,102712.03
2022-12-01T08:42:19.575Z,102709.25
2022-12-01T08:47:41.261Z,102707.56
2022-12-01T08:53:02.925Z,102711.56
2022-12-01T08:58:24.930Z,102709.66
2022-12-01T09:03:47.400Z,102706.88
2022-12-01T09:09:11.138Z,102710.69
2022-12-01T09:14:37.987Z,102706.03
2022-12-01T09:19:59.663Z,102714.50
2022-12-01T09:25:21.341Z,102724.72
2022-12-01T09:30:43.188Z,102722.81
2022-12-01T09:36:07.304Z,102723.84
2022-12-01T09:42:05.005Z,102723.84
2022-12-01T09:47:34.305Z,102732.56
2022-12-01T09:53:03.887Z,102731.22
2022-12-01T09:58:30.937Z,102730.84
2022-12-01T10:03:57.964Z,102731.91
2022-12-01T10:09:19.570Z,102720.16
2022-12-01T10:14:43.493Z,102715.69
2022-12-01T10:20:21.799Z,102706.34
2022-12-01T10:25:52.369Z,102700.81
2022-12-01T10:31:26.666Z,102695.28
2022-12-01T10:36:48.862Z,102701.00
2022-12-01T10:42:24.397Z,102697.00
2022-12-01T10:48:18.216Z,102693.56
2022-12-01T10:53:39.958Z,102689.28
2022-12-01T10:59:21.908Z,102684.59
2022-12-01T11:04:46.215Z,102684.97
2022-12-01T11:10:16.340Z,102689.44
2022-12-01T11:15:40.994Z,102682.03
2022-12-01T11:21:13.136Z,102686.69
2022-12-01T11:26:34.976Z,102676.88
2022-12-01T11:31:59.079Z,102675.16
2022-12-01T11:37:24.624Z,102669.44
2022-12-01T11:42:56.552Z,102653.91
2022-12-01T11:48:21.257Z,102666.69
2022-12-01T11:53:44.268Z,102657.72
2022-12-01T11:59:12.455Z,102653.91
2022-12-01T12:05:01.879Z,102649.41
2022-12-01T12:10:44.158Z,102650.25
2022-12-01T12:16:17.800Z,102650.47
2022-12-01T12:22:10.476Z,102643.22
2022-12-01T12:27:59.190Z,102630.44
2022-12-01T12:33:29.943Z,102634.25
2022-12-01T12:39:00.601Z,102626.16
2022-12-01T12:44:36.811Z,102612.13
2022-12-01T12:50:17.535Z,102612.34
2022-12-01T12:55:45.440Z,102608.03
2022-12-01T13:01:16.125Z,102611.66
2022-12-01T13:06:43.667Z,102596.34
2022-12-01T13:12:10.022Z,102598.22
2022-12-01T13:17:44.683Z,102585.28
2022-12-01T13:23:10.116Z,102587.38
2022-12-01T13:28:53.890Z,102585.44
2022-12-01T13:34:27.584Z,102586.31
2022-12-01T13:39:54.594Z,102584.59
2022-12-01T13:45:19.958Z,102580.13
2022-12-01T13:50:44.160Z,102570.31
2022-12-01T13:56:25.419Z,102572.88
2022-12-01T14:01:47.917Z,102563.91
2022-12-01T14:07:35.132Z,102568.59
2022-12-01T14:13:02.526Z,102563.25
2022-12-01T14:18:36.867Z,102561.34
2022-12-01T14:24:01.828Z,102562.59
2022-12-01T14:29:26.944Z,102563.00
2022-12-01T14:34:52.238Z,102566.81
2022-12-01T14:40:19.063Z,102564.22
2022-12-01T14:45:55.043Z,102568.03
2022-12-01T14:51:28.511Z,102572.72
2022-12-01T14:56:54.178Z,102575.69
2022-12-01T15:02:15.878Z,102564.13
2022-12-01T15:07:39.730Z,102567.56
2022-12-01T15:13:21.798Z,102571.22
2022-12-01T15:18:44.151Z,102566.91
2022-12-01T15:24:19.677Z,102568.63
2022-12-01T15:29:45.710Z,102571.59
2022-12-01T15:35:17.023Z,102583.50
2022-12-01T15:41:27.395Z,102590.06
2022-12-01T15:46:28.284Z,102599.03
2022-12-01T15:51:50.840Z,102589.22
2022-12-01T15:57:17.577Z,102586.66
2022-12-01T16:02:39.918Z,102591.31
2022-12-01T16:08:19.991Z,102583.91
2022-12-01T16:13:47.344Z,102587.03
2022-12-01T16:19:08.986Z,102591.91
2022-12-01T16:24:51.775Z,102576.19
2022-12-01T16:30:23.067Z,102580.84
2022-12-01T16:35:45.222Z,102579.13
2022-12-01T16:41:17.773Z,102583.63
2022-12-01T16:46:40.400Z,102579.34
2022-12-01T16:52:16.015Z,102594.97
2022-12-01T16:57:43.863Z,102599.47
2022-12-01T17:03:06.396Z,102610.63
2022-12-01T17:08:28.606Z,102611.34
2022-12-01T17:13:50.341Z,102620.50
2022-12-01T17:19:12.207Z,102609.53
2022-12-01T17:24:33.912Z,102606.16
2022-12-01T17:29:55.749Z,102605.28
2022-12-01T17:35:17.649Z,102597.56
2022-12-01T17:40:39.400Z,102593.69
2022-12-01T17:46:02.122Z,102600.16
2022-12-01T17:51:24.205Z,102596.84
2022-12-01T17:56:45.926Z,102601.78
2022-12-01T18:02:09.997Z,102591.75
2022-12-01T18:07:31.787Z,102591.50
2022-12-01T18:12:53.470Z,102589.41
2022-12-01T18:18:15.205Z,102588.97
2022-12-01T18:23:37.197Z,102598.16
2022-12-01T18:29:07.118Z,102591.78
2022-12-01T18:34:32.281Z,102585.59
2022-12-01T18:39:56.527Z,102590.28
2022-12-01T18:45:21.214Z,102584.91
2022-12-01T18:50:43.035Z,102589.81
2022-12-01T18:56:07.465Z,102589.84
2022-12-01T19:01:42.429Z,102591.97
2022-12-01T19:07:05.700Z,102589.38
2022-12-01T19:12:27.526Z,102580.63
2022-12-01T19:17:49.292Z,102580.88
2022-12-01T19:23:11.010Z,102586.84
2022-12-01T19:28:34.093Z,102574.44
2022-12-01T19:33:56.131Z,102576.13
2022-12-01T19:39:17.884Z,102577.56
2022-12-01T19:44:39.569Z,102575.16
2022-12-01T19:50:01.378Z,102577.66
2022-12-01T19:55:23.016Z,102570.13
2022-12-01T20:00:44.934Z,102582.28
2022-12-01T20:06:30.587Z,102583.97
2022-12-01T20:11:53.851Z,102579.72
2022-12-01T20:17:16.164Z,102581.88
2022-12-01T20:22:38.269Z,102585.16
2022-12-01T20:28:00.077Z,102575.97
2022-12-01T20:33:22.053Z,102583.31
2022-12-01T20:38:44.207Z,102585.94
2022-12-01T20:44:07.638Z,102583.34
2022-12-01T20:49:29.823Z,102576.13
2022-12-01T20:54:51.707Z,102578.69
2022-12-01T21:00:14.344Z,102574.44
2022-12-01T21:05:39.459Z,102577.16
2022-12-01T21:11:06.165Z,102560.25
2022-12-01T21:16:34.111Z,102553.63
2022-12-01T21:21:56.248Z,102561.53
2022-12-01T21:27:18.517Z,102556.00
2022-12-01T21:32:44.034Z,102550.47
2022-12-01T21:38:11.112Z,102548.81
2022-12-01T21:43:38.091Z,102546.88
2022-12-01T21:49:01.469Z,102548.81
2022-12-01T21:54:23.392Z,102544.97
2022-12-01T21:59:45.109Z,102528.31
2022-12-01T22:05:25.819Z,102528.75
2022-12-01T22:11:02.474Z,102515.50
2022-12-01T22:16:40.798Z,102514.22
2022-12-01T22:22:03.742Z,102512.06
2022-12-01T22:27:28.670Z,102511.16
2022-12-01T22:33:00.459Z,102500.94
2022-12-01T22:38:34.118Z,102506.47
2022-12-01T22:43:57.763Z,102501.97
2022-12-01T22:49:23.165Z,102510.03
2022-12-01T22:54:49.323Z,102501.72
2022-12-01T23:00:16.956Z,102503.63
2022-12-01T23:05:38.851Z,102500.81
2022-12-01T23:11:00.600Z,102507.22
2022-12-01T23:16:22.397Z,102511.44
2022-12-01T23:21:44.384Z,102497.34
2022-12-01T23:27:07.073Z,102492.44
2022-12-01T23:32:28.736Z,102483.47
2022-12-01T23:37:50.630Z,102493.03
2022-12-01T23:43:19.123Z,102493.41
2022-12-01T23:48:47.177Z,102488.31
2022-12-01T23:54:20.794Z,102472.31
2022-12-01T23:59:43.706Z,102469.94
